Furenas — OZ2085 — position and weather

sailwx.info

Track history (hours):
 
Tides and Currents Weather Stations Pressure Air Temp Water Temp Dewpoint Dewpoint Depression Visibility Wind Speed Wind Dir Waves Ship Positions

Furenas

Last reported at 2014-Oct-16 07:13 UTC. Time now 2014-Oct-20 18:05 UTC.
Position N 59°23' W 003°40'.

Length 137 m; draft 6.1 m.

Type: Tanker. MMSI: 231734000.

Date/timePositionNaut miles runAvg speedWind from/ knotsBaromVisibWave heightAir tempDewpointWater temp
2014-Oct-16 07:13N 59°23' W 003°40'15 9.3
2014-Oct-16 05:33N 59°12' W 004°02'9 9.5
2014-Oct-16 04:33N 59°06' W 004°16'10 9.5
2014-Oct-16 03:31N 58°59' W 004°30'5310.1
2014-Oct-15 22:16N 58°18' W 005°34'158 8.8
2014-Oct-15 04:17N 55°47' W 007°00'7 9.6
2014-Oct-15 03:33N 55°41' W 006°56'10 9.6
2014-Oct-15 02:33N 55°35' W 006°42'9 9.3
2014-Oct-15 01:33N 55°30' W 006°28'10 9.5
2014-Oct-15 00:33N 55°26' W 006°14'9 9.0
2014-Oct-14 23:33N 55°22' W 005°60'8 8.1
2014-Oct-14 22:33N 55°15' W 005°51'33 8.2
2014-Oct-14 18:30N 55°31' W 004°60'9 9.2
2014-Oct-14 17:30N 55°40' W 004°60'9 9.5
2014-Oct-14 16:33N 55°49' W 004°57'1110.8
2014-Oct-14 15:33N 55°57' W 004°46'1010.0
2014-Oct-14 14:33N 55°55' W 004°28'2 0.1
2014-Oct-13 15:23N 55°54' W 004°26'1 1.1
2014-Oct-13 14:14N 55°54' W 004°24'1 1.5
2014-Oct-13 13:33N 55°54' W 004°25'8 8.0
2014-Oct-13 12:33N 55°56' W 004°39'9 8.9
2014-Oct-13 11:33N 55°56' W 004°55'1212.0
2014-Oct-13 10:33N 55°44' W 004°59'9 9.1
2014-Oct-13 09:33N 55°35' W 004°59'3110.0
2014-Oct-13 06:29N 55°14' W 005°38'1111.6
2014-Oct-13 05:33N 55°14' W 005°57'1110.8
2014-Oct-13 04:33N 55°21' W 006°11'1212.2
2014-Oct-13 03:34N 55°28' W 006°29'1313.3
2014-Oct-13 02:33N 55°36' W 006°48'1313.3
2014-Oct-13 01:33N 55°47' W 007°00'14613.3
2014-Oct-12 14:34N 58°10' W 006°00'6512.6
2014-Oct-12 09:21N 58°42' W 004°12'1012.5
2014-Oct-12 08:34N 58°43' W 003°53'1312.7
2014-Oct-12 07:33N 58°43' W 003°28'1514.7
2014-Oct-12 06:33N 58°43' W 003°00'41911.2
2014-Oct-10 17:16N 58°07' E 010°17'912.5
2014-Oct-10 16:33N 58°09' E 010°33'1212.4
2014-Oct-10 15:33N 58°13' E 010°56'1211.8
2014-Oct-10 14:33N 58°17' E 011°17'7 6.1
2014-Oct-10 13:28N 58°21' E 011°26'0 0.0
2014-Oct-09 17:26N 58°21' E 011°26'2 2.4
2014-Oct-09 16:33N 58°20' E 011°23'8 8.1
2014-Oct-09 15:31N 58°15' E 011°10'2 1.6
2014-Oct-09 14:33N 58°14' E 011°09'5 5.2
2014-Oct-09 13:33N 58°11' E 011°01'9 9.2
2014-Oct-09 12:33N 58°05' E 010°47'9 9.3
2014-Oct-09 11:33N 57°60' E 010°33'1110.5
2014-Oct-09 10:33N 57°53' E 010°17'20211.9
2014-Oct-08 17:33N 55°19' E 006°20'1211.8
2014-Oct-08 16:33N 55°09' E 006°09'6211.4
2014-Oct-08 11:06N 54°17' E 005°09'811.5
2014-Oct-08 10:24N 54°11' E 005°01'1111.5
2014-Oct-08 09:24N 53°60' E 004°56'1011.5
2014-Oct-08 08:32N 53°50' E 004°53'1711.6
2014-Oct-08 07:05N 53°34' E 004°48'711.9
2014-Oct-08 06:33N 53°28' E 004°44'5312.8
2014-Oct-08 02:26N 52°41' E 004°03'1212.9
2014-Oct-08 01:32N 52°31' E 003°54'1212.8
2014-Oct-08 00:34N 52°19' E 003°52'1211.8
2014-Oct-07 23:33N 52°07' E 003°55'1110.7
2014-Oct-07 22:33N 51°59' E 004°06'2 1.2
2014-Oct-07 21:20N 51°57' E 004°08'0 0.0
2014-Oct-07 20:26N 51°57' E 004°08'0 0.0
2014-Oct-07 19:23N 51°57' E 004°08'0 0.0
2014-Oct-07 18:29N 51°57' E 004°08'0 0.0
2014-Oct-07 17:32N 51°57' E 004°08'0 0.0
2014-Oct-07 16:32N 51°57' E 004°08'0 0.0
2014-Oct-07 15:27N 51°57' E 004°08'1 1.0
2014-Oct-07 14:34N 51°58' E 004°07'1 0.1
2014-Oct-06 22:25N 51°57' E 004°06'4 4.2
2014-Oct-06 21:33N 51°60' E 004°02'1010.1
2014-Oct-06 20:33N 51°59' E 003°45'8 0.7
2014-Oct-06 09:33N 51°55' E 003°34'  
Track history (hours):
 
Tides and Currents Weather Stations Pressure Air Temp Water Temp Dewpoint Dewpoint Depression Visibility Wind Speed Wind Dir Waves Ship Positions

Furenas

Last reported at 2014-Oct-16 07:13 UTC. Time now 2014-Oct-20 18:05 UTC.
Position N 59°23' W 003°40'.

Length 137 m; draft 6.1 m.

Type: Tanker. MMSI: 231734000.

Date/timePositionNaut miles runAvg speedWind from/ knotsBaromVisibWave heightAir tempDewpointWater temp
2014-Oct-16 07:13N 59°23' W 003°40'15 9.3
2014-Oct-16 05:33N 59°12' W 004°02'9 9.5
2014-Oct-16 04:33N 59°06' W 004°16'10 9.5
2014-Oct-16 03:31N 58°59' W 004°30'5310.1
2014-Oct-15 22:16N 58°18' W 005°34'158 8.8
2014-Oct-15 04:17N 55°47' W 007°00'7 9.6
2014-Oct-15 03:33N 55°41' W 006°56'10 9.6
2014-Oct-15 02:33N 55°35' W 006°42'9 9.3
2014-Oct-15 01:33N 55°30' W 006°28'10 9.5
2014-Oct-15 00:33N 55°26' W 006°14'9 9.0
2014-Oct-14 23:33N 55°22' W 005°60'8 8.1
2014-Oct-14 22:33N 55°15' W 005°51'33 8.2
2014-Oct-14 18:30N 55°31' W 004°60'9 9.2
2014-Oct-14 17:30N 55°40' W 004°60'9 9.5
2014-Oct-14 16:33N 55°49' W 004°57'1110.8
2014-Oct-14 15:33N 55°57' W 004°46'1010.0
2014-Oct-14 14:33N 55°55' W 004°28'2 0.1
2014-Oct-13 15:23N 55°54' W 004°26'1 1.1
2014-Oct-13 14:14N 55°54' W 004°24'1 1.5
2014-Oct-13 13:33N 55°54' W 004°25'8 8.0
2014-Oct-13 12:33N 55°56' W 004°39'9 8.9
2014-Oct-13 11:33N 55°56' W 004°55'1212.0
2014-Oct-13 10:33N 55°44' W 004°59'9 9.1
2014-Oct-13 09:33N 55°35' W 004°59'3110.0
2014-Oct-13 06:29N 55°14' W 005°38'1111.6
2014-Oct-13 05:33N 55°14' W 005°57'1110.8
2014-Oct-13 04:33N 55°21' W 006°11'1212.2
2014-Oct-13 03:34N 55°28' W 006°29'1313.3
2014-Oct-13 02:33N 55°36' W 006°48'1313.3
2014-Oct-13 01:33N 55°47' W 007°00'14613.3
2014-Oct-12 14:34N 58°10' W 006°00'6512.6
2014-Oct-12 09:21N 58°42' W 004°12'1012.5
2014-Oct-12 08:34N 58°43' W 003°53'1312.7
2014-Oct-12 07:33N 58°43' W 003°28'1514.7
2014-Oct-12 06:33N 58°43' W 003°00'41911.2
2014-Oct-10 17:16N 58°07' E 010°17'912.5
2014-Oct-10 16:33N 58°09' E 010°33'1212.4
2014-Oct-10 15:33N 58°13' E 010°56'1211.8
2014-Oct-10 14:33N 58°17' E 011°17'7 6.1
2014-Oct-10 13:28N 58°21' E 011°26'0 0.0
2014-Oct-09 17:26N 58°21' E 011°26'2 2.4
2014-Oct-09 16:33N 58°20' E 011°23'8 8.1
2014-Oct-09 15:31N 58°15' E 011°10'2 1.6
2014-Oct-09 14:33N 58°14' E 011°09'5 5.2
2014-Oct-09 13:33N 58°11' E 011°01'9 9.2
2014-Oct-09 12:33N 58°05' E 010°47'9 9.3
2014-Oct-09 11:33N 57°60' E 010°33'1110.5
2014-Oct-09 10:33N 57°53' E 010°17'20211.9
2014-Oct-08 17:33N 55°19' E 006°20'1211.8
2014-Oct-08 16:33N 55°09' E 006°09'6211.4
2014-Oct-08 11:06N 54°17' E 005°09'811.5
2014-Oct-08 10:24N 54°11' E 005°01'1111.5
2014-Oct-08 09:24N 53°60' E 004°56'1011.5
2014-Oct-08 08:32N 53°50' E 004°53'1711.6
2014-Oct-08 07:05N 53°34' E 004°48'711.9
2014-Oct-08 06:33N 53°28' E 004°44'5312.8
2014-Oct-08 02:26N 52°41' E 004°03'1212.9
2014-Oct-08 01:32N 52°31' E 003°54'1212.8
2014-Oct-08 00:34N 52°19' E 003°52'1211.8
2014-Oct-07 23:33N 52°07' E 003°55'1110.7
2014-Oct-07 22:33N 51°59' E 004°06'2 1.2
2014-Oct-07 21:20N 51°57' E 004°08'0 0.0
2014-Oct-07 20:26N 51°57' E 004°08'0 0.0
2014-Oct-07 19:23N 51°57' E 004°08'0 0.0
2014-Oct-07 18:29N 51°57' E 004°08'0 0.0
2014-Oct-07 17:32N 51°57' E 004°08'0 0.0
2014-Oct-07 16:32N 51°57' E 004°08'0 0.0
2014-Oct-07 15:27N 51°57' E 004°08'1 1.0
2014-Oct-07 14:34N 51°58' E 004°07'1 0.1
2014-Oct-06 22:25N 51°57' E 004°06'4 4.2
2014-Oct-06 21:33N 51°60' E 004°02'1010.1
2014-Oct-06 20:33N 51°59' E 003°45'8 0.7
2014-Oct-06 09:33N 51°55' E 003°34'  

Dump ship's entire track history